sensor_id;sensor_type;location;lat;lon;timestamp;pressure;altitude;pressure_sealevel;temperature;humidity
42601;BME280;28229;48.856;9.088;2023-04-04T00:02:03;98774.25;;;-0.05;60.81
42601;BME280;28229;48.856;9.088;2023-04-04T00:04:29;98775.47;;;-0.09;60.93
42601;BME280;28229;48.856;9.088;2023-04-04T00:06:55;98779.94;;;-0.11;61.35
42601;BME280;28229;48.856;9.088;2023-04-04T00:09:21;98770.91;;;-0.16;61.93
42601;BME280;28229;48.856;9.088;2023-04-04T00:11:48;98771.19;;;-0.20;62.04
42601;BME280;28229;48.856;9.088;2023-04-04T00:14:14;98768.72;;;-0.21;62.20
42601;BME280;28229;48.856;9.088;2023-04-04T00:16:41;98771.13;;;-0.29;62.36
42601;BME280;28229;48.856;9.088;2023-04-04T00:19:07;98766.50;;;-0.26;62.72
42601;BME280;28229;48.856;9.088;2023-04-04T00:21:33;98764.81;;;-0.36;63.25
42601;BME280;28229;48.856;9.088;2023-04-04T00:23:59;98767.28;;;-0.35;63.35
42601;BME280;28229;48.856;9.088;2023-04-04T00:26:26;98761.78;;;-0.42;63.65
42601;BME280;28229;48.856;9.088;2023-04-04T00:28:52;98759.22;;;-0.42;63.65
42601;BME280;28229;48.856;9.088;2023-04-04T00:31:19;98756.38;;;-0.60;64.36
42601;BME280;28229;48.856;9.088;2023-04-04T00:33:45;98761.09;;;-0.65;64.99
42601;BME280;28229;48.856;9.088;2023-04-04T00:36:12;98761.78;;;-0.63;65.05
42601;BME280;28229;48.856;9.088;2023-04-04T00:38:38;98758.34;;;-0.73;65.42
42601;BME280;28229;48.856;9.088;2023-04-04T00:41:05;98758.00;;;-0.80;65.96
42601;BME280;28229;48.856;9.088;2023-04-04T00:43:31;98748.38;;;-0.78;66.09
42601;BME280;28229;48.856;9.088;2023-04-04T00:45:58;98757.75;;;-0.77;66.22
42601;BME280;28229;48.856;9.088;2023-04-04T00:48:24;98750.00;;;-0.77;66.29
42601;BME280;28229;48.856;9.088;2023-04-04T00:50:51;98753.66;;;-0.79;66.17
42601;BME280;28229;48.856;9.088;2023-04-04T00:53:17;98744.88;;;-0.88;66.47
42601;BME280;28229;48.856;9.088;2023-04-04T00:55:44;98748.91;;;-0.95;66.47
42601;BME280;28229;48.856;9.088;2023-04-04T00:58:10;98743.34;;;-1.11;67.29
42601;BME280;28229;48.856;9.088;2023-04-04T01:00:36;98741.44;;;-1.09;67.32
42601;BME280;28229;48.856;9.088;2023-04-04T01:03:03;98737.34;;;-1.12;67.30
42601;BME280;28229;48.856;9.088;2023-04-04T01:05:32;98742.19;;;-1.19;67.76
42601;BME280;28229;48.856;9.088;2023-04-04T01:07:59;98741.94;;;-1.16;68.11
42601;BME280;28229;48.856;9.088;2023-04-04T01:10:29;98739.50;;;-1.17;68.26
42601;BME280;28229;48.856;9.088;2023-04-04T01:12:56;98742.41;;;-1.22;67.71
42601;BME280;28229;48.856;9.088;2023-04-04T01:15:22;98742.94;;;-1.28;68.12
42601;BME280;28229;48.856;9.088;2023-04-04T01:17:50;98730.25;;;-1.31;68.91
42601;BME280;28229;48.856;9.088;2023-04-04T01:20:22;98739.66;;;-1.30;68.48
42601;BME280;28229;48.856;9.088;2023-04-04T01:22:53;98729.91;;;-1.26;69.15
42601;BME280;28229;48.856;9.088;2023-04-04T01:25:27;98732.94;;;-1.32;68.66
42601;BME280;28229;48.856;9.088;2023-04-04T01:27:58;98734.72;;;-1.33;69.02
42601;BME280;28229;48.856;9.088;2023-04-04T01:30:31;98728.16;;;-1.37;68.73
42601;BME280;28229;48.856;9.088;2023-04-04T01:33:09;98729.56;;;-1.33;68.62
42601;BME280;28229;48.856;9.088;2023-04-04T01:35:42;98727.94;;;-1.45;69.48
42601;BME280;28229;48.856;9.088;2023-04-04T01:38:27;98727.47;;;-1.50;69.27
42601;BME280;28229;48.856;9.088;2023-04-04T01:41:02;98721.34;;;-1.38;69.21
42601;BME280;28229;48.856;9.088;2023-04-04T01:43:32;98726.22;;;-1.56;69.46
42601;BME280;28229;48.856;9.088;2023-04-04T01:45:59;98731.25;;;-1.55;69.35
42601;BME280;28229;48.856;9.088;2023-04-04T01:48:27;98727.72;;;-1.54;69.41
42601;BME280;28229;48.856;9.088;2023-04-04T01:50:56;98721.41;;;-1.61;69.38
42601;BME280;28229;48.856;9.088;2023-04-04T01:53:25;98720.25;;;-1.68;69.88
42601;BME280;28229;48.856;9.088;2023-04-04T01:55:52;98718.84;;;-1.72;70.08
42601;BME280;28229;48.856;9.088;2023-04-04T01:58:22;98712.03;;;-1.73;70.10
42601;BME280;28229;48.856;9.088;2023-04-04T02:00:49;98709.34;;;-1.72;70.42
42601;BME280;28229;48.856;9.088;2023-04-04T02:03:15;98714.38;;;-1.70;70.39
42601;BME280;28229;48.856;9.088;2023-04-04T02:05:42;98704.66;;;-1.66;70.26
42601;BME280;28229;48.856;9.088;2023-04-04T02:08:09;98713.69;;;-1.72;70.68
42601;BME280;28229;48.856;9.088;2023-04-04T02:10:44;98708.31;;;-1.69;70.63
42601;BME280;28229;48.856;9.088;2023-04-04T02:13:10;98712.53;;;-1.79;71.00
42601;BME280;28229;48.856;9.088;2023-04-04T02:15:37;98715.56;;;-1.74;70.83
42601;BME280;28229;48.856;9.088;2023-04-04T02:18:03;98711.34;;;-1.75;70.58
42601;BME280;28229;48.856;9.088;2023-04-04T02:20:30;98713.25;;;-1.88;71.47
42601;BME280;28229;48.856;9.088;2023-04-04T02:22:56;98720.16;;;-1.89;71.67
42601;BME280;28229;48.856;9.088;2023-04-04T02:25:23;98720.75;;;-1.97;71.91
42601;BME280;28229;48.856;9.088;2023-04-04T02:27:50;98714.41;;;-2.04;72.48
42601;BME280;28229;48.856;9.088;2023-04-04T02:30:16;98712.09;;;-1.96;71.89
42601;BME280;28229;48.856;9.088;2023-04-04T02:32:43;98711.16;;;-2.06;72.60
42601;BME280;28229;48.856;9.088;2023-04-04T02:35:14;98715.59;;;-1.97;72.17
42601;BME280;28229;48.856;9.088;2023-04-04T02:37:43;98718.75;;;-1.93;71.83
42601;BME280;28229;48.856;9.088;2023-04-04T02:40:13;98718.66;;;-2.03;72.28
42601;BME280;28229;48.856;9.088;2023-04-04T02:42:43;98718.19;;;-2.08;72.26
42601;BME280;28229;48.856;9.088;2023-04-04T02:45:10;98715.59;;;-2.08;72.26
42601;BME280;28229;48.856;9.088;2023-04-04T02:47:37;98716.19;;;-2.16;72.38
42601;BME280;28229;48.856;9.088;2023-04-04T02:50:04;98717.38;;;-2.08;72.34
42601;BME280;28229;48.856;9.088;2023-04-04T02:52:31;98711.16;;;-2.06;72.33
42601;BME280;28229;48.856;9.088;2023-04-04T02:55:05;98706.47;;;-2.12;72.29
42601;BME280;28229;48.856;9.088;2023-04-04T02:57:36;98699.31;;;-2.20;72.79
42601;BME280;28229;48.856;9.088;2023-04-04T03:00:02;98702.69;;;-2.19;72.71
42601;BME280;28229;48.856;9.088;2023-04-04T03:02:29;98707.41;;;-2.24;73.04
42601;BME280;28229;48.856;9.088;2023-04-04T03:04:55;98705.97;;;-2.28;73.26
42601;BME280;28229;48.856;9.088;2023-04-04T03:07:22;98700.97;;;-2.19;72.50
42601;BME280;28229;48.856;9.088;2023-04-04T03:09:51;98711.84;;;-2.15;72.33
42601;BME280;28229;48.856;9.088;2023-04-04T03:12:19;98701.06;;;-2.20;72.20
42601;BME280;28229;48.856;9.088;2023-04-04T03:14:46;98698.72;;;-2.23;72.14
42601;BME280;28229;48.856;9.088;2023-04-04T03:17:13;98709.72;;;-2.21;72.73
42601;BME280;28229;48.856;9.088;2023-04-04T03:19:43;98700.47;;;-2.24;72.45
42601;BME280;28229;48.856;9.088;2023-04-04T03:22:11;98704.09;;;-2.26;72.35
42601;BME280;28229;48.856;9.088;2023-04-04T03:24:37;98702.91;;;-2.34;72.77
42601;BME280;28229;48.856;9.088;2023-04-04T03:27:03;98700.50;;;-2.35;72.92
42601;BME280;28229;48.856;9.088;2023-04-04T03:29:30;98701.53;;;-2.38;73.16
42601;BME280;28229;48.856;9.088;2023-04-04T03:31:57;98700.59;;;-2.37;73.09
42601;BME280;28229;48.856;9.088;2023-04-04T03:34:23;98704.09;;;-2.38;73.06
42601;BME280;28229;48.856;9.088;2023-04-04T03:36:49;98701.53;;;-2.38;73.25
42601;BME280;28229;48.856;9.088;2023-04-04T03:39:19;98703.19;;;-2.37;73.05
42601;BME280;28229;48.856;9.088;2023-04-04T03:41:46;98695.66;;;-2.40;73.58
42601;BME280;28229;48.856;9.088;2023-04-04T03:44:12;98695.44;;;-2.37;73.53
42601;BME280;28229;48.856;9.088;2023-04-04T03:46:39;98702.22;;;-2.36;73.44
42601;BME280;28229;48.856;9.088;2023-04-04T03:49:06;98702.94;;;-2.45;74.03
42601;BME280;28229;48.856;9.088;2023-04-04T03:51:33;98704.56;;;-2.44;73.99
42601;BME280;28229;48.856;9.088;2023-04-04T03:53:59;98698.47;;;-2.43;74.66
42601;BME280;28229;48.856;9.088;2023-04-04T03:56:25;98699.44;;;-2.44;74.95
42601;BME280;28229;48.856;9.088;2023-04-04T03:58:51;98697.88;;;-2.46;74.58
42601;BME280;28229;48.856;9.088;2023-04-04T04:01:20;98698.47;;;-2.43;74.23
42601;BME280;28229;48.856;9.088;2023-04-04T04:03:46;98702.22;;;-2.47;74.10
42601;BME280;28229;48.856;9.088;2023-04-04T04:06:13;98703.41;;;-2.51;74.34
42601;BME280;28229;48.856;9.088;2023-04-04T04:08:39;98702.22;;;-2.47;73.78
42601;BME280;28229;48.856;9.088;2023-04-04T04:11:07;98699.44;;;-2.44;74.23
42601;BME280;28229;48.856;9.088;2023-04-04T04:13:34;98698.25;;;-2.51;74.03
42601;BME280;28229;48.856;9.088;2023-04-04T04:16:03;98702.22;;;-2.47;74.27
42601;BME280;28229;48.856;9.088;2023-04-04T04:18:30;98710.41;;;-2.53;73.77
42601;BME280;28229;48.856;9.088;2023-04-04T04:20:57;98705.59;;;-2.58;74.25
42601;BME280;28229;48.856;9.088;2023-04-04T04:23:25;98702.22;;;-2.47;74.45
42601;BME280;28229;48.856;9.088;2023-04-04T04:25:52;98706.09;;;-2.53;73.94
42601;BME280;28229;48.856;9.088;2023-04-04T04:28:21;98710.28;;;-2.52;74.06
42601;BME280;28229;48.856;9.088;2023-04-04T04:30:49;98714.41;;;-2.49;74.03
42601;BME280;28229;48.856;9.088;2023-04-04T04:33:20;98713.44;;;-2.59;74.19
42601;BME280;28229;48.856;9.088;2023-04-04T04:36:01;98704.06;;;-2.60;74.39
42601;BME280;28229;48.856;9.088;2023-04-04T04:38:32;98705.69;;;-2.71;74.69
42601;BME280;28229;48.856;9.088;2023-04-04T04:40:59;98711.75;;;-2.83;75.35
42601;BME280;28229;48.856;9.088;2023-04-04T04:43:32;98712.94;;;-2.76;75.03
42601;BME280;28229;48.856;9.088;2023-04-04T04:45:59;98715.63;;;-2.77;75.18
42601;BME280;28229;48.856;9.088;2023-04-04T04:48:26;98710.47;;;-2.77;75.31
42601;BME280;28229;48.856;9.088;2023-04-04T04:50:56;98706.81;;;-2.86;75.62
42601;BME280;28229;48.856;9.088;2023-04-04T04:53:35;98706.22;;;-2.90;75.53
42601;BME280;28229;48.856;9.088;2023-04-04T04:56:02;98710.56;;;-2.90;75.87
42601;BME280;28229;48.856;9.088;2023-04-04T04:58:29;98709.06;;;-2.81;75.62
42601;BME280;28229;48.856;9.088;2023-04-04T05:00:57;98709.88;;;-2.81;75.71
42601;BME280;28229;48.856;9.088;2023-04-04T05:03:28;98711.06;;;-2.74;75.38
42601;BME280;28229;48.856;9.088;2023-04-04T05:05:54;98715.41;;;-2.74;75.49
42601;BME280;28229;48.856;9.088;2023-04-04T05:08:21;98717.41;;;-2.78;75.50
42601;BME280;28229;48.856;9.088;2023-04-04T05:11:00;98722.19;;;-2.73;75.04
42601;BME280;28229;48.856;9.088;2023-04-04T05:13:28;98717.28;;;-2.76;75.56
42601;BME280;28229;48.856;9.088;2023-04-04T05:15:54;98721.38;;;-2.74;75.53
42601;BME280;28229;48.856;9.088;2023-04-04T05:18:21;98726.03;;;-2.79;75.55
42601;BME280;28229;48.856;9.088;2023-04-04T05:20:54;98726.97;;;-2.80;76.04
42601;BME280;28229;48.856;9.088;2023-04-04T05:23:22;98732.16;;;-2.69;75.84
42601;BME280;28229;48.856;9.088;2023-04-04T05:25:49;98722.78;;;-2.70;75.77
42601;BME280;28229;48.856;9.088;2023-04-04T05:28:16;98719.06;;;-2.65;75.65
42601;BME280;28229;48.856;9.088;2023-04-04T05:30:42;98730.41;;;-2.68;76.35
42601;BME280;28229;48.856;9.088;2023-04-04T05:33:13;98730.28;;;-2.66;76.00
42601;BME280;28229;48.856;9.088;2023-04-04T05:35:44;98728.41;;;-2.64;76.09
42601;BME280;28229;48.856;9.088;2023-04-04T05:38:12;98733.34;;;-2.61;75.77
42601;BME280;28229;48.856;9.088;2023-04-04T05:40:38;98727.84;;;-2.57;75.50
42601;BME280;28229;48.856;9.088;2023-04-04T05:43:09;98733.13;;;-2.58;75.74
42601;BME280;28229;48.856;9.088;2023-04-04T05:45:46;98732.91;;;-2.44;75.74
42601;BME280;28229;48.856;9.088;2023-04-04T05:48:13;98724.97;;;-2.30;75.98
42601;BME280;28229;48.856;9.088;2023-04-04T05:50:48;98733.03;;;-2.34;75.60
42601;BME280;28229;48.856;9.088;2023-04-04T05:53:16;98726.16;;;-2.22;75.07
42601;BME280;28229;48.856;9.088;2023-04-04T05:55:45;98734.69;;;-2.22;74.64
42601;BME280;28229;48.856;9.088;2023-04-04T05:58:11;98728.94;;;-2.14;74.20
42601;BME280;28229;48.856;9.088;2023-04-04T06:00:46;98733.66;;;-2.08;73.90
42601;BME280;28229;48.856;9.088;2023-04-04T06:03:13;98739.16;;;-2.01;72.90
42601;BME280;28229;48.856;9.088;2023-04-04T06:05:41;98737.97;;;-1.86;72.68
42601;BME280;28229;48.856;9.088;2023-04-04T06:08:09;98740.09;;;-1.80;75.03
42601;BME280;28229;48.856;9.088;2023-04-04T06:10:35;98740.16;;;-1.59;80.92
42601;BME280;28229;48.856;9.088;2023-04-04T06:13:02;98744.53;;;-1.27;87.73
42601;BME280;28229;48.856;9.088;2023-04-04T06:15:30;98743.34;;;-1.11;80.68
42601;BME280;28229;48.856;9.088;2023-04-04T06:17:56;98737.09;;;-1.09;73.30
42601;BME280;28229;48.856;9.088;2023-04-04T06:20:23;98737.09;;;-1.09;70.77
42601;BME280;28229;48.856;9.088;2023-04-04T06:22:51;98746.19;;;-0.93;76.05
42601;BME280;28229;48.856;9.088;2023-04-04T06:25:18;98733.75;;;-0.67;77.28
42601;BME280;28229;48.856;9.088;2023-04-04T06:27:45;98739.63;;;-0.65;70.02
42601;BME280;28229;48.856;9.088;2023-04-04T06:30:12;98738.41;;;-0.61;68.14
42601;BME280;28229;48.856;9.088;2023-04-04T06:32:42;98736.91;;;-0.64;67.30
42601;BME280;28229;48.856;9.088;2023-04-04T06:35:12;98729.28;;;-0.65;65.97
42601;BME280;28229;48.856;9.088;2023-04-04T06:37:43;98731.78;;;-0.54;66.54
42601;BME280;28229;48.856;9.088;2023-04-04T06:40:16;98746.25;;;-0.51;66.42
42601;BME280;28229;48.856;9.088;2023-04-04T06:42:52;98748.44;;;-0.47;65.30
42601;BME280;28229;48.856;9.088;2023-04-04T06:45:24;98736.81;;;-0.31;64.44
42601;BME280;28229;48.856;9.088;2023-04-04T06:47:52;98740.28;;;-0.21;64.31
42601;BME280;28229;48.856;9.088;2023-04-04T06:50:20;98739.50;;;-0.12;63.59
42601;BME280;28229;48.856;9.088;2023-04-04T06:52:48;98736.69;;;0.01;64.62
42601;BME280;28229;48.856;9.088;2023-04-04T06:55:15;98734.56;;;0.16;64.13
42601;BME280;28229;48.856;9.088;2023-04-04T06:57:42;98738.25;;;0.23;63.08
42601;BME280;28229;48.856;9.088;2023-04-04T07:00:09;98725.91;;;0.36;61.86
42601;BME280;28229;48.856;9.088;2023-04-04T07:02:35;98731.53;;;0.42;61.22
42601;BME280;28229;48.856;9.088;2023-04-04T07:05:02;98726.50;;;0.60;61.36
42601;BME280;28229;48.856;9.088;2023-04-04T07:07:29;98726.81;;;0.66;60.29
42601;BME280;28229;48.856;9.088;2023-04-04T07:09:55;98728.31;;;0.79;59.12
42601;BME280;28229;48.856;9.088;2023-04-04T07:12:21;98731.72;;;0.89;58.65
42601;BME280;28229;48.856;9.088;2023-04-04T07:14:48;98732.94;;;1.04;58.75
42601;BME280;28229;48.856;9.088;2023-04-04T07:17:14;98730.22;;;1.06;57.37
42601;BME280;28229;48.856;9.088;2023-04-04T07:19:40;98732.00;;;1.25;57.58
42601;BME280;28229;48.856;9.088;2023-04-04T07:22:06;98723.38;;;1.24;56.34
42601;BME280;28229;48.856;9.088;2023-04-04T07:24:32;98728.41;;;1.45;55.82
42601;BME280;28229;48.856;9.088;2023-04-04T07:26:58;98732.75;;;1.55;54.84
42601;BME280;28229;48.856;9.088;2023-04-04T07:29:25;98736.41;;;1.71;56.84
42601;BME280;28229;48.856;9.088;2023-04-04T07:31:51;98727.66;;;1.82;53.53
42601;BME280;28229;48.856;9.088;2023-04-04T07:34:17;98725.53;;;1.96;52.99
42601;BME280;28229;48.856;9.088;2023-04-04T07:36:44;98732.84;;;2.10;52.91
42601;BME280;28229;48.856;9.088;2023-04-04T07:39:11;98729.31;;;2.11;52.94
42601;BME280;28229;48.856;9.088;2023-04-04T07:41:37;98721.72;;;2.27;52.53
42601;BME280;28229;48.856;9.088;2023-04-04T07:44:04;98734.50;;;2.39;52.29
42601;BME280;28229;48.856;9.088;2023-04-04T07:46:30;98719.38;;;2.52;51.77
42601;BME280;28229;48.856;9.088;2023-04-04T07:48:57;98724.38;;;2.63;51.16
42601;BME280;28229;48.856;9.088;2023-04-04T07:51:23;98727.06;;;2.90;52.09
42601;BME280;28229;48.856;9.088;2023-04-04T07:53:54;98728.19;;;3.05;51.21
42601;BME280;28229;48.856;9.088;2023-04-04T07:56:21;98720.38;;;3.23;51.31
42601;BME280;28229;48.856;9.088;2023-04-04T07:58:47;98721.78;;;3.35;48.95
42601;BME280;28229;48.856;9.088;2023-04-04T08:01:14;98719.22;;;3.43;49.43
42601;BME280;28229;48.856;9.088;2023-04-04T08:03:40;98719.63;;;3.57;48.76
42601;BME280;28229;48.856;9.088;2023-04-04T08:06:06;98725.19;;;3.62;48.92
42601;BME280;28229;48.856;9.088;2023-04-04T08:08:34;98726.53;;;3.66;48.35
42601;BME280;28229;48.856;9.088;2023-04-04T08:11:01;98720.09;;;3.78;48.54
42601;BME280;28229;48.856;9.088;2023-04-04T08:13:27;98712.16;;;3.88;47.11
42601;BME280;28229;48.856;9.088;2023-04-04T08:15:53;98720.66;;;3.98;46.50
42601;BME280;28229;48.856;9.088;2023-04-04T08:18:19;98723.78;;;4.02;47.52
42601;BME280;28229;48.856;9.088;2023-04-04T08:20:46;98721.25;;;4.18;46.74
42601;BME280;28229;48.856;9.088;2023-04-04T08:23:12;98714.81;;;4.39;45.88
42601;BME280;28229;48.856;9.088;2023-04-04T08:25:39;98717.78;;;4.44;45.20
42601;BME280;28229;48.856;9.088;2023-04-04T08:28:05;98713.56;;;4.51;45.23
42601;BME280;28229;48.856;9.088;2023-04-04T08:30:35;98709.19;;;4.76;45.71
42601;BME280;28229;48.856;9.088;2023-04-04T08:33:01;98714.59;;;5.00;44.81
42601;BME280;28229;48.856;9.088;2023-04-04T08:35:28;98717.19;;;5.08;44.11
42601;BME280;28229;48.856;9.088;2023-04-04T08:37:54;98713.16;;;5.13;44.39
42601;BME280;28229;48.856;9.088;2023-04-04T08:40:20;98715.91;;;5.04;42.83
42601;BME280;28229;48.856;9.088;2023-04-04T08:42:49;98714.59;;;5.16;43.26
42601;BME280;28229;48.856;9.088;2023-04-04T08:45:17;98712.97;;;5.31;43.66
42601;BME280;28229;48.856;9.088;2023-04-04T08:47:45;98721.44;;;5.50;43.15
42601;BME280;28229;48.856;9.088;2023-04-04T08:50:14;98710.03;;;5.34;43.40
42601;BME280;28229;48.856;9.088;2023-04-04T08:52:41;98714.44;;;5.42;41.59
42601;BME280;28229;48.856;9.088;2023-04-04T08:55:08;98713.63;;;5.25;41.94
42601;BME280;28229;48.856;9.088;2023-04-04T08:57:37;98720.63;;;5.17;42.17
42601;BME280;28229;48.856;9.088;2023-04-04T09:00:04;98720.50;;;5.10;42.64
42601;BME280;28229;48.856;9.088;2023-04-04T09:02:48;98715.75;;;4.89;42.75
42601;BME280;28229;48.856;9.088;2023-04-04T09:05:15;98719.31;;;5.04;42.38
42601;BME280;28229;48.856;9.088;2023-04-04T09:07:42;98722.09;;;5.11;42.16
42601;BME280;28229;48.856;9.088;2023-04-04T09:10:09;98724.38;;;5.06;47.06
42601;BME280;28229;48.856;9.088;2023-04-04T09:12:41;98726.69;;;5.17;43.46
42601;BME280;28229;48.856;9.088;2023-04-04T09:15:09;98720.47;;;5.26;43.45
42601;BME280;28229;48.856;9.088;2023-04-04T09:17:35;98721.28;;;5.35;42.14
42601;BME280;28229;48.856;9.088;2023-04-04T09:23:11;98713.91;;;5.71;41.66
42601;BME280;28229;48.856;9.088;2023-04-04T09:25:46;98710.56;;;6.02;40.67
42601;BME280;28229;48.856;9.088;2023-04-04T09:28:15;98712.25;;;5.79;40.85
42601;BME280;28229;48.856;9.088;2023-04-04T09:30:42;98715.94;;;6.09;40.97
42601;BME280;28229;48.856;9.088;2023-04-04T09:33:12;98714.19;;;6.41;39.37
42601;BME280;28229;48.856;9.088;2023-04-04T09:35:43;98712.97;;;6.83;39.05
42601;BME280;28229;48.856;9.088;2023-04-04T09:38:10;98711.56;;;6.95;38.37
42601;BME280;28229;48.856;9.088;2023-04-04T09:40:37;98717.47;;;7.12;38.55
42601;BME280;28229;48.856;9.088;2023-04-04T09:43:07;98708.09;;;7.41;38.45
42601;BME280;28229;48.856;9.088;2023-04-04T09:45:34;98718.50;;;7.49;38.09
42601;BME280;28229;48.856;9.088;2023-04-04T09:48:01;98718.31;;;7.66;37.45
42601;BME280;28229;48.856;9.088;2023-04-04T09:50:28;98716.44;;;7.74;36.70
42601;BME280;28229;48.856;9.088;2023-04-04T09:52:56;98719.16;;;7.96;37.87
42601;BME280;28229;48.856;9.088;2023-04-04T09:55:33;98714.66;;;8.05;35.78
42601;BME280;28229;48.856;9.088;2023-04-04T09:58:10;98713.28;;;8.09;35.55
42601;BME280;28229;48.856;9.088;2023-04-04T10:00:39;98717.06;;;7.91;35.49
42601;BME280;28229;48.856;9.088;2023-04-04T10:03:07;98708.06;;;7.79;36.17
42601;BME280;28229;48.856;9.088;2023-04-04T10:05:33;98708.72;;;7.43;35.94
42601;BME280;28229;48.856;9.088;2023-04-04T10:08:12;98715.31;;;7.54;36.66
42601;BME280;28229;48.856;9.088;2023-04-04T10:10:49;98710.41;;;7.89;35.54
42601;BME280;28229;48.856;9.088;2023-04-04T10:15:50;98715.34;;;8.28;36.25
42601;BME280;28229;48.856;9.088;2023-04-04T10:18:20;98703.50;;;8.47;35.79
42601;BME280;28229;48.856;9.088;2023-04-04T10:20:48;98709.56;;;8.48;36.58
42601;BME280;28229;48.856;9.088;2023-04-04T10:23:15;98703.28;;;8.64;34.46
42601;BME280;28229;48.856;9.088;2023-04-04T10:25:41;98698.63;;;8.81;33.96
42601;BME280;28229;48.856;9.088;2023-04-04T10:28:08;98704.84;;;8.80;35.82
42601;BME280;28229;48.856;9.088;2023-04-04T10:30:40;98696.53;;;8.76;35.26
42601;BME280;28229;48.856;9.088;2023-04-04T10:33:09;98698.97;;;8.77;35.96
42601;BME280;28229;48.856;9.088;2023-04-04T10:35:43;98687.97;;;8.89;34.62
42601;BME280;28229;48.856;9.088;2023-04-04T10:38:24;98688.16;;;8.66;34.93
42601;BME280;28229;48.856;9.088;2023-04-04T10:40:55;98693.84;;;8.91;34.70
42601;BME280;28229;48.856;9.088;2023-04-04T10:43:24;98692.97;;;9.05;35.70
42601;BME280;28229;48.856;9.088;2023-04-04T10:45:51;98694.91;;;9.18;33.54
42601;BME280;28229;48.856;9.088;2023-04-04T10:48:18;98696.59;;;9.26;35.00
42601;BME280;28229;48.856;9.088;2023-04-04T10:50:45;98702.53;;;9.13;35.16
42601;BME280;28229;48.856;9.088;2023-04-04T10:53:13;98687.44;;;9.43;34.72
42601;BME280;28229;48.856;9.088;2023-04-04T10:55:39;98688.56;;;9.06;34.69
42601;BME280;28229;48.856;9.088;2023-04-04T10:58:07;98696.59;;;9.04;34.97
42601;BME280;28229;48.856;9.088;2023-04-04T11:00:48;98678.28;;;9.32;34.72
42601;BME280;28229;48.856;9.088;2023-04-04T11:03:14;98681.22;;;9.01;33.88
42601;BME280;28229;48.856;9.088;2023-04-04T11:05:40;98685.34;;;9.10;34.80
42601;BME280;28229;48.856;9.088;2023-04-04T11:08:16;98674.78;;;8.82;33.22
42601;BME280;28229;48.856;9.088;2023-04-04T11:10:47;98677.47;;;8.89;36.01
42601;BME280;28229;48.856;9.088;2023-04-04T11:13:24;98685.22;;;9.19;33.36
42601;BME280;28229;48.856;9.088;2023-04-04T11:16:20;98674.47;;;9.13;33.52
42601;BME280;28229;48.856;9.088;2023-04-04T11:18:46;98675.59;;;9.04;33.75
42601;BME280;28229;48.856;9.088;2023-04-04T11:28:51;98668.38;;;9.63;32.31
42601;BME280;28229;48.856;9.088;2023-04-04T11:34:05;98667.34;;;9.99;33.59
42601;BME280;28229;48.856;9.088;2023-04-04T11:41:51;98666.78;;;10.78;30.81
42601;BME280;28229;48.856;9.088;2023-04-04T11:44:19;98656.88;;;10.12;31.59
42601;BME280;28229;48.856;9.088;2023-04-04T11:46:46;98665.34;;;10.56;31.08
42601;BME280;28229;48.856;9.088;2023-04-04T11:49:13;98661.78;;;10.97;31.21
42601;BME280;28229;48.856;9.088;2023-04-04T11:51:40;98650.44;;;11.23;30.40
42601;BME280;28229;48.856;9.088;2023-04-04T11:54:15;98656.09;;;11.07;31.67
42601;BME280;28229;48.856;9.088;2023-04-04T11:56:43;98652.84;;;11.04;31.70
42601;BME280;28229;48.856;9.088;2023-04-04T11:59:10;98652.25;;;11.02;31.97
42601;BME280;28229;48.856;9.088;2023-04-04T12:01:38;98649.41;;;10.84;31.86
42601;BME280;28229;48.856;9.088;2023-04-04T12:04:04;98654.47;;;10.92;30.60
42601;BME280;28229;48.856;9.088;2023-04-04T12:06:30;98651.03;;;10.92;32.16
42601;BME280;28229;48.856;9.088;2023-04-04T12:08:57;98651.63;;;10.94;30.89
42601;BME280;28229;48.856;9.088;2023-04-04T12:11:25;98648.59;;;11.10;31.18
42601;BME280;28229;48.856;9.088;2023-04-04T12:13:55;98639.28;;;11.08;31.00
42601;BME280;28229;48.856;9.088;2023-04-04T12:16:22;98641.91;;;11.41;30.88
42601;BME280;28229;48.856;9.088;2023-04-04T12:18:48;98646.75;;;11.57;29.12
42601;BME280;28229;48.856;9.088;2023-04-04T12:21:15;98640.44;;;11.65;29.86
42601;BME280;28229;48.856;9.088;2023-04-04T12:23:41;98642.91;;;11.53;28.84
42601;BME280;28229;48.856;9.088;2023-04-04T12:26:07;98639.63;;;11.58;29.05
42601;BME280;28229;48.856;9.088;2023-04-04T12:28:34;98636.81;;;11.59;29.17
42601;BME280;28229;48.856;9.088;2023-04-04T12:31:04;98634.41;;;11.31;30.31
42601;BME280;28229;48.856;9.088;2023-04-04T12:33:41;98632.91;;;11.75;30.95
42601;BME280;28229;48.856;9.088;2023-04-04T12:36:07;98631.41;;;11.99;29.66
42601;BME280;28229;48.856;9.088;2023-04-04T12:38:53;98625.25;;;12.19;29.73
42601;BME280;28229;48.856;9.088;2023-04-04T12:41:20;98624.81;;;12.29;29.72
42601;BME280;28229;48.856;9.088;2023-04-04T12:43:46;98618.50;;;11.78;29.40
42601;BME280;28229;48.856;9.088;2023-04-04T12:46:13;98623.16;;;11.82;29.56
42601;BME280;28229;48.856;9.088;2023-04-04T12:48:39;98616.91;;;11.70;28.81
42601;BME280;28229;48.856;9.088;2023-04-04T12:51:06;98618.00;;;12.08;28.55
42601;BME280;28229;48.856;9.088;2023-04-04T12:53:49;98606.56;;;12.21;28.73
42601;BME280;28229;48.856;9.088;2023-04-04T12:56:16;98601.75;;;12.49;28.26
42601;BME280;28229;48.856;9.088;2023-04-04T12:58:45;98599.28;;;12.80;26.60
42601;BME280;28229;48.856;9.088;2023-04-04T13:01:14;98601.25;;;12.91;27.74
42601;BME280;28229;48.856;9.088;2023-04-04T13:03:40;98597.84;;;12.59;28.98
42601;BME280;28229;48.856;9.088;2023-04-04T13:06:11;98602.16;;;12.14;27.33
42601;BME280;28229;48.856;9.088;2023-04-04T13:08:48;98596.78;;;12.28;27.70
42601;BME280;28229;48.856;9.088;2023-04-04T13:11:14;98596.41;;;12.24;28.78
42601;BME280;28229;48.856;9.088;2023-04-04T13:13:40;98595.34;;;12.64;28.42
42601;BME280;28229;48.856;9.088;2023-04-04T13:16:10;98589.22;;;13.20;26.88
42601;BME280;28229;48.856;9.088;2023-04-04T13:18:45;98586.59;;;12.70;26.76
42601;BME280;28229;48.856;9.088;2023-04-04T13:21:13;98587.97;;;12.72;27.52
42601;BME280;28229;48.856;9.088;2023-04-04T13:23:40;98583.44;;;12.54;27.36
42601;BME280;28229;48.856;9.088;2023-04-04T13:26:07;98584.13;;;12.43;27.67
42601;BME280;28229;48.856;9.088;2023-04-04T13:28:34;98580.97;;;12.28;28.55
42601;BME280;28229;48.856;9.088;2023-04-04T13:31:06;98571.03;;;11.85;28.63
42601;BME280;28229;48.856;9.088;2023-04-04T13:33:33;98573.38;;;12.06;27.71